Thorco Crystal — V2BP9 — position and weather

sailwx.info

Track history (hours):
 
Tides and Currents Weather Stations Pressure Air Temp Water Temp Dewpoint Dewpoint Depression Visibility Wind Speed Wind Dir Waves Ship Positions

Thorco Crystal

Last reported at 2017-Apr-29 13:29 UTC. Time now 2017-Apr-29 13:43 UTC.
Position S 29°52' E 031°02'.

Length 145 m; draft 5.7 m.

Type: Cargo ship. MMSI: 304736000.

Date/timePositionNaut miles runAvg speedWind from/ knotsBaromVisibWave heightAir tempDewpointWater temp
2017-Apr-29 13:29S 29°52' E 031°02'0 0.0
2017-Apr-29 12:59S 29°52' E 031°02'0 0.0
2017-Apr-29 12:29S 29°52' E 031°02'0 0.0
2017-Apr-29 11:59S 29°52' E 031°02'0 0.0
2017-Apr-29 11:29S 29°52' E 031°02'0 0.0
2017-Apr-29 10:59S 29°52' E 031°02'0 0.0
2017-Apr-29 10:29S 29°52' E 031°02'0 0.0
2017-Apr-29 09:59S 29°52' E 031°02'0 0.0
2017-Apr-29 09:29S 29°52' E 031°02'0 0.0
2017-Apr-29 08:59S 29°52' E 031°02'0 0.0
2017-Apr-29 08:30S 29°52' E 031°02'1 1.4
2017-Apr-29 08:00S 29°53' E 031°03'4 7.9
2017-Apr-29 07:31S 29°50' E 031°06'1 2.3
2017-Apr-29 07:00S 29°49' E 031°07'1 1.0
2017-Apr-29 06:30S 29°49' E 031°07'2 3.1
2017-Apr-29 06:00S 29°49' E 031°09'2 4.1
2017-Apr-29 05:30S 29°49' E 031°12'1 1.5
2017-Apr-29 05:00S 29°50' E 031°12'0 0.6
2017-Apr-29 04:30S 29°50' E 031°12'0 0.5
2017-Apr-29 04:00S 29°50' E 031°12'0 1.0
2017-Apr-29 03:30S 29°50' E 031°12'0 0.5
2017-Apr-29 03:00S 29°50' E 031°12'3 5.1
2017-Apr-29 02:30S 29°51' E 031°09'2 4.6
2017-Apr-29 02:00S 29°53' E 031°08'5 9.9
2017-Apr-29 01:30S 29°58' E 031°10'510.5
2017-Apr-29 01:00S 30°03' E 031°11'510.4
2017-Apr-29 00:30S 30°08' E 031°08'511.0
2017-Apr-29 00:00S 30°12' E 031°05'510.5
2017-Apr-28 23:30S 30°17' E 031°02'5 9.8
2017-Apr-28 23:00S 30°21' E 031°00'5 9.9
2017-Apr-28 22:30S 30°26' E 030°58'6 9.8
2017-Apr-28 21:56S 30°31' E 030°55'  
Track history (hours):
 
Tides and Currents Weather Stations Pressure Air Temp Water Temp Dewpoint Dewpoint Depression Visibility Wind Speed Wind Dir Waves Ship Positions

Thorco Crystal

Last reported at 2017-Apr-29 13:29 UTC. Time now 2017-Apr-29 13:43 UTC.
Position S 29°52' E 031°02'.

Length 145 m; draft 5.7 m.

Type: Cargo ship. MMSI: 304736000.

Date/timePositionNaut miles runAvg speedWind from/ knotsBaromVisibWave heightAir tempDewpointWater temp
2017-Apr-29 13:29S 29°52' E 031°02'0 0.0
2017-Apr-29 12:59S 29°52' E 031°02'0 0.0
2017-Apr-29 12:29S 29°52' E 031°02'0 0.0
2017-Apr-29 11:59S 29°52' E 031°02'0 0.0
2017-Apr-29 11:29S 29°52' E 031°02'0 0.0
2017-Apr-29 10:59S 29°52' E 031°02'0 0.0
2017-Apr-29 10:29S 29°52' E 031°02'0 0.0
2017-Apr-29 09:59S 29°52' E 031°02'0 0.0
2017-Apr-29 09:29S 29°52' E 031°02'0 0.0
2017-Apr-29 08:59S 29°52' E 031°02'0 0.0
2017-Apr-29 08:30S 29°52' E 031°02'1 1.4
2017-Apr-29 08:00S 29°53' E 031°03'4 7.9
2017-Apr-29 07:31S 29°50' E 031°06'1 2.3
2017-Apr-29 07:00S 29°49' E 031°07'1 1.0
2017-Apr-29 06:30S 29°49' E 031°07'2 3.1
2017-Apr-29 06:00S 29°49' E 031°09'2 4.1
2017-Apr-29 05:30S 29°49' E 031°12'1 1.5
2017-Apr-29 05:00S 29°50' E 031°12'0 0.6
2017-Apr-29 04:30S 29°50' E 031°12'0 0.5
2017-Apr-29 04:00S 29°50' E 031°12'0 1.0
2017-Apr-29 03:30S 29°50' E 031°12'0 0.5
2017-Apr-29 03:00S 29°50' E 031°12'3 5.1
2017-Apr-29 02:30S 29°51' E 031°09'2 4.6
2017-Apr-29 02:00S 29°53' E 031°08'5 9.9
2017-Apr-29 01:30S 29°58' E 031°10'510.5
2017-Apr-29 01:00S 30°03' E 031°11'510.4
2017-Apr-29 00:30S 30°08' E 031°08'511.0
2017-Apr-29 00:00S 30°12' E 031°05'510.5
2017-Apr-28 23:30S 30°17' E 031°02'5 9.8
2017-Apr-28 23:00S 30°21' E 031°00'5 9.9
2017-Apr-28 22:30S 30°26' E 030°58'6 9.8
2017-Apr-28 21:56S 30°31' E 030°55'  

Dump ship's entire track history